createdAt,value
2022-08-31T00:00:28.919Z,77.9
2022-08-31T00:01:28.910Z,78.7
2022-08-31T00:02:28.941Z,79.3
2022-08-31T00:03:28.995Z,78.7
2022-08-31T00:04:28.944Z,78.3
2022-08-31T00:05:28.990Z,77.4
2022-08-31T00:06:28.996Z,77.3
2022-08-31T00:07:29.135Z,77.3
2022-08-31T00:08:29.077Z,77.4
2022-08-31T00:09:28.993Z,77.7
2022-08-31T00:10:32.950Z,76.5
2022-08-31T00:11:29.138Z,77.4
2022-08-31T00:12:29.007Z,77.1
2022-08-31T00:13:28.910Z,78.3
2022-08-31T00:14:28.987Z,77.2
2022-08-31T00:15:28.937Z,76.8
2022-08-31T00:16:28.962Z,76.6
2022-08-31T00:17:28.939Z,76.6
2022-08-31T00:18:33.941Z,76.6
2022-08-31T00:19:28.983Z,76.5
2022-08-31T00:20:33.121Z,75.9
2022-08-31T00:21:28.932Z,75.9
2022-08-31T00:22:28.912Z,76
2022-08-31T00:23:28.940Z,76.4
2022-08-31T00:24:28.921Z,75.9
2022-08-31T00:25:28.923Z,76.4
2022-08-31T00:26:28.974Z,77.5
2022-08-31T00:27:28.912Z,78.9
2022-08-31T00:28:28.935Z,79
2022-08-31T00:29:28.923Z,81.7
2022-08-31T00:30:28.923Z,82.5
2022-08-31T00:31:29.023Z,81.8
2022-08-31T00:32:29.352Z,81.9
2022-08-31T00:33:28.975Z,82.3
2022-08-31T00:34:28.951Z,83
2022-08-31T00:35:28.922Z,82.9
2022-08-31T00:36:30.950Z,83.1
2022-08-31T00:37:28.915Z,83.2
2022-08-31T00:38:29.295Z,83.8
2022-08-31T00:39:28.986Z,83.5
2022-08-31T00:40:29.035Z,83.4
2022-08-31T00:41:28.923Z,84.5
2022-08-31T00:42:28.914Z,84.2
2022-08-31T00:43:28.926Z,85.9
2022-08-31T00:44:29.014Z,84.3
2022-08-31T00:45:28.971Z,86.5
2022-08-31T00:46:29.006Z,87.7
2022-08-31T00:47:28.925Z,88.1
2022-08-31T00:48:28.937Z,90.7
2022-08-31T00:49:28.919Z,93.1
2022-08-31T00:50:28.936Z,95.4
2022-08-31T00:51:29.193Z,98.8
2022-08-31T00:52:29.120Z,100
2022-08-31T00:53:29.179Z,100
2022-08-31T00:54:28.922Z,100
2022-08-31T00:55:28.942Z,100
2022-08-31T00:56:28.980Z,100
2022-08-31T00:57:28.927Z,100
2022-08-31T00:58:28.931Z,100
2022-08-31T00:59:28.934Z,100
2022-08-31T01:00:29.012Z,100
2022-08-31T01:01:29.056Z,100
2022-08-31T01:02:28.989Z,100
2022-08-31T01:03:28.926Z,100
2022-08-31T01:04:28.934Z,100
2022-08-31T01:05:28.924Z,100
2022-08-31T01:06:28.939Z,100
2022-08-31T01:07:29.006Z,100
2022-08-31T01:08:30.824Z,100
2022-08-31T01:09:28.996Z,100
2022-08-31T01:10:28.927Z,100
2022-08-31T01:11:28.946Z,100
2022-08-31T01:12:28.936Z,100
2022-08-31T01:13:28.935Z,100
2022-08-31T01:14:28.997Z,100
2022-08-31T01:15:28.945Z,100
2022-08-31T01:16:28.959Z,100
2022-08-31T01:17:28.931Z,100
2022-08-31T01:18:28.925Z,100
2022-08-31T01:19:28.962Z,100
2022-08-31T01:20:28.930Z,100
2022-08-31T01:21:29.042Z,100
2022-08-31T01:22:28.987Z,100
2022-08-31T01:23:28.931Z,100
2022-08-31T01:24:28.930Z,100
2022-08-31T01:25:33.456Z,100
2022-08-31T01:26:28.935Z,100
2022-08-31T01:27:28.938Z,100
2022-08-31T01:28:28.998Z,100
2022-08-31T01:29:28.944Z,100
2022-08-31T01:30:28.933Z,100
2022-08-31T01:31:29.104Z,100
2022-08-31T01:32:28.976Z,100
2022-08-31T01:33:28.936Z,100
2022-08-31T01:34:29.003Z,100
2022-08-31T01:35:28.978Z,100
2022-08-31T01:36:28.959Z,100
2022-08-31T01:37:29.483Z,100
2022-08-31T01:38:28.989Z,100
2022-08-31T01:39:28.988Z,100
2022-08-31T01:40:28.959Z,100
2022-08-31T01:41:29.003Z,100
2022-08-31T01:42:33.444Z,100
2022-08-31T01:43:30.990Z,100
2022-08-31T01:44:28.940Z,100
2022-08-31T01:45:28.930Z,100
2022-08-31T01:46:29.001Z,100
2022-08-31T01:47:28.936Z,100
2022-08-31T01:48:29.092Z,100
2022-08-31T01:49:28.927Z,100
2022-08-31T01:50:28.950Z,100
2022-08-31T01:51:28.950Z,100
2022-08-31T01:52:28.975Z,100
2022-08-31T01:53:29.011Z,100
2022-08-31T01:54:29.009Z,100
2022-08-31T01:55:29.012Z,100
2022-08-31T01:56:28.995Z,100
2022-08-31T01:57:33.959Z,100
2022-08-31T01:58:28.941Z,100
2022-08-31T02:00:29.029Z,100
2022-08-31T02:01:33.536Z,100
2022-08-31T02:02:29.097Z,100
2022-08-31T02:03:29.043Z,100
2022-08-31T02:04:29.218Z,100
2022-08-31T02:05:28.932Z,100
2022-08-31T02:06:28.958Z,100
2022-08-31T02:07:28.947Z,100
2022-08-31T02:08:28.999Z,100
2022-08-31T02:09:29.040Z,100
2022-08-31T02:10:28.932Z,100
2022-08-31T02:11:29.062Z,100
2022-08-31T02:12:29.007Z,100
2022-08-31T02:13:29.007Z,100
2022-08-31T02:14:29.019Z,100
2022-08-31T02:15:29.007Z,100
2022-08-31T02:16:29.105Z,100
2022-08-31T02:17:28.940Z,100
2022-08-31T02:18:28.950Z,100
2022-08-31T02:19:28.952Z,100
2022-08-31T02:20:29.052Z,100
2022-08-31T02:21:28.950Z,100
2022-08-31T02:22:29.056Z,100
2022-08-31T02:23:28.996Z,100
2022-08-31T02:24:28.960Z,100
2022-08-31T02:25:28.978Z,100
2022-08-31T02:26:28.998Z,100
2022-08-31T02:27:28.984Z,100
2022-08-31T02:28:28.953Z,100
2022-08-31T02:29:29.000Z,100
2022-08-31T02:30:29.046Z,100
2022-08-31T02:31:29.133Z,100
2022-08-31T02:32:28.931Z,100
2022-08-31T02:33:29.040Z,100
2022-08-31T02:34:28.950Z,100
2022-08-31T02:35:28.959Z,100
2022-08-31T02:36:28.999Z,100
2022-08-31T02:37:28.971Z,100
2022-08-31T02:38:29.065Z,100
2022-08-31T02:39:28.976Z,100
2022-08-31T02:40:29.086Z,100
2022-08-31T02:41:29.092Z,100
2022-08-31T02:42:32.900Z,100
2022-08-31T02:43:29.040Z,100
2022-08-31T02:44:29.118Z,100
2022-08-31T02:45:29.012Z,100
2022-08-31T02:46:29.070Z,100
2022-08-31T02:47:28.940Z,100
2022-08-31T02:48:28.961Z,100
2022-08-31T02:49:28.971Z,100
2022-08-31T02:50:31.053Z,100
2022-08-31T02:51:28.962Z,100
2022-08-31T02:52:29.009Z,100
2022-08-31T02:53:29.339Z,100
2022-08-31T02:54:29.067Z,100
2022-08-31T02:55:29.006Z,100
2022-08-31T02:56:28.969Z,100
2022-08-31T02:57:29.022Z,100
2022-08-31T02:58:28.951Z,100
2022-08-31T02:59:29.097Z,100
2022-08-31T03:00:28.949Z,100
2022-08-31T03:01:28.994Z,100
2022-08-31T03:02:32.015Z,100
2022-08-31T03:03:29.014Z,100
2022-08-31T03:04:29.018Z,100
2022-08-31T03:05:28.970Z,100
2022-08-31T03:06:28.950Z,100
2022-08-31T03:07:28.955Z,100
2022-08-31T03:08:29.660Z,100
2022-08-31T03:09:28.941Z,100
2022-08-31T03:10:29.059Z,100
2022-08-31T03:11:29.022Z,100
2022-08-31T03:12:28.957Z,100
2022-08-31T03:13:28.978Z,100
2022-08-31T03:14:28.977Z,100
2022-08-31T03:15:29.006Z,100
2022-08-31T03:16:29.007Z,100
2022-08-31T03:17:29.018Z,100
2022-08-31T03:18:29.038Z,100
2022-08-31T03:19:29.016Z,100
2022-08-31T03:20:29.022Z,100
2022-08-31T03:21:28.966Z,100
2022-08-31T03:22:29.047Z,100
2022-08-31T03:23:29.056Z,100
2022-08-31T03:24:29.046Z,100
2022-08-31T03:25:29.057Z,100
2022-08-31T03:26:28.954Z,100
2022-08-31T03:27:28.956Z,100
2022-08-31T03:28:28.960Z,100
2022-08-31T03:29:29.098Z,100
2022-08-31T03:30:29.713Z,100
2022-08-31T03:31:29.083Z,100
2022-08-31T03:32:28.959Z,100
2022-08-31T03:33:28.960Z,100
2022-08-31T03:34:29.032Z,100
2022-08-31T03:35:28.963Z,100
2022-08-31T03:36:29.034Z,100
2022-08-31T03:37:28.971Z,100
2022-08-31T03:38:29.048Z,100
2022-08-31T03:39:28.968Z,100
2022-08-31T03:40:29.126Z,100
2022-08-31T03:41:28.968Z,100
2022-08-31T03:42:28.949Z,100
2022-08-31T03:43:28.965Z,100
2022-08-31T03:44:28.975Z,100
2022-08-31T03:45:29.059Z,100
2022-08-31T03:46:29.038Z,100
2022-08-31T03:47:29.027Z,100
2022-08-31T03:48:29.006Z,100
2022-08-31T03:49:28.962Z,100
2022-08-31T03:50:28.965Z,100
2022-08-31T03:51:28.972Z,100
2022-08-31T03:52:29.032Z,100
2022-08-31T03:53:29.050Z,100
2022-08-31T03:54:29.030Z,100
2022-08-31T03:55:29.040Z,100
2022-08-31T03:56:29.098Z,100
2022-08-31T03:57:31.044Z,100
2022-08-31T03:58:28.960Z,100
2022-08-31T03:59:29.023Z,100
2022-08-31T04:00:29.086Z,100
2022-08-31T04:01:29.041Z,100
2022-08-31T04:02:31.904Z,100
2022-08-31T04:03:28.986Z,100
2022-08-31T04:04:28.991Z,100
2022-08-31T04:05:28.959Z,100
2022-08-31T04:06:29.036Z,100
2022-08-31T04:07:29.284Z,100
2022-08-31T04:08:29.021Z,100
2022-08-31T04:09:29.030Z,100
2022-08-31T04:10:29.136Z,100
2022-08-31T04:11:44.813Z,100
2022-08-31T04:12:29.020Z,100
2022-08-31T04:13:30.350Z,100
2022-08-31T04:14:28.974Z,100
2022-08-31T04:15:29.360Z,100
2022-08-31T04:16:28.963Z,100
2022-08-31T04:17:28.979Z,100
2022-08-31T04:18:29.094Z,100
2022-08-31T04:19:31.385Z,100
2022-08-31T04:20:30.011Z,100
2022-08-31T04:21:28.981Z,100
2022-08-31T04:22:28.983Z,100
2022-08-31T04:23:29.026Z,100
2022-08-31T04:24:28.985Z,100
2022-08-31T04:25:28.974Z,100
2022-08-31T04:26:29.069Z,100
2022-08-31T04:27:28.976Z,100
2022-08-31T04:28:34.037Z,100
2022-08-31T04:29:29.066Z,100
2022-08-31T04:30:29.074Z,100
2022-08-31T04:31:29.208Z,100
2022-08-31T04:32:29.120Z,100
2022-08-31T04:33:29.044Z,100
2022-08-31T04:34:29.082Z,100
2022-08-31T04:35:29.025Z,100
2022-08-31T04:36:28.995Z,100
2022-08-31T04:37:29.015Z,100
2022-08-31T04:38:28.974Z,100
2022-08-31T04:39:32.772Z,100
2022-08-31T04:40:29.092Z,100
2022-08-31T04:41:29.028Z,100
2022-08-31T04:42:29.024Z,100
2022-08-31T04:43:28.971Z,100
2022-08-31T04:44:29.116Z,100
2022-08-31T04:45:29.020Z,100
2022-08-31T04:46:28.964Z,100
2022-08-31T04:47:29.209Z,100
2022-08-31T04:48:28.983Z,100
2022-08-31T04:49:29.073Z,100
2022-08-31T04:50:28.983Z,100
2022-08-31T04:51:29.001Z,100
2022-08-31T04:52:28.978Z,100
2022-08-31T04:53:28.983Z,100
2022-08-31T04:54:29.041Z,100
2022-08-31T04:55:29.016Z,100
2022-08-31T04:56:28.976Z,100
2022-08-31T04:57:29.031Z,100
2022-08-31T04:58:28.977Z,100
2022-08-31T04:59:28.971Z,100
2022-08-31T05:00:28.989Z,100
2022-08-31T05:01:29.140Z,100
2022-08-31T05:02:29.136Z,100
2022-08-31T05:03:28.975Z,100
2022-08-31T05:04:31.035Z,100
2022-08-31T05:05:28.981Z,100
2022-08-31T05:06:28.964Z,100
2022-08-31T05:07:29.041Z,100
2022-08-31T05:08:29.207Z,100
2022-08-31T05:09:28.969Z,100
2022-08-31T05:10:29.022Z,100
2022-08-31T05:11:29.014Z,100
2022-08-31T05:12:28.978Z,100
2022-08-31T05:13:28.981Z,100
2022-08-31T05:14:29.057Z,100
2022-08-31T05:15:29.072Z,100
2022-08-31T05:16:29.055Z,100
2022-08-31T05:17:29.069Z,100
2022-08-31T05:18:28.975Z,100
2022-08-31T05:19:29.023Z,100
2022-08-31T05:20:29.076Z,100
2022-08-31T05:21:29.059Z,100
2022-08-31T05:22:29.219Z,100
2022-08-31T05:23:29.376Z,100
2022-08-31T05:24:29.116Z,100
2022-08-31T05:25:29.161Z,100
2022-08-31T05:26:29.333Z,100
2022-08-31T05:27:29.232Z,100
2022-08-31T05:28:29.053Z,100
2022-08-31T05:29:28.987Z,100
2022-08-31T05:30:29.184Z,100
2022-08-31T05:31:29.290Z,100
2022-08-31T05:32:28.972Z,100
2022-08-31T05:33:28.998Z,100
2022-08-31T05:34:29.077Z,100
2022-08-31T05:35:29.042Z,100
2022-08-31T05:36:28.976Z,100
2022-08-31T05:37:29.085Z,100
2022-08-31T05:38:28.987Z,100
2022-08-31T05:39:28.991Z,100
2022-08-31T05:40:29.033Z,100
2022-08-31T05:41:29.010Z,100
2022-08-31T05:42:29.039Z,100
2022-08-31T05:43:29.026Z,100
2022-08-31T05:44:29.673Z,100
2022-08-31T05:45:28.992Z,100
2022-08-31T05:46:29.089Z,100
2022-08-31T05:47:29.039Z,100
2022-08-31T05:48:29.988Z,100
2022-08-31T05:49:29.034Z,100
2022-08-31T05:50:29.087Z,100
2022-08-31T05:51:29.007Z,100
2022-08-31T05:52:29.094Z,100
2022-08-31T05:53:29.134Z,100
2022-08-31T05:54:29.117Z,100
2022-08-31T05:55:29.034Z,100
2022-08-31T05:56:29.037Z,100
2022-08-31T05:57:28.986Z,100
2022-08-31T05:58:29.018Z,100
2022-08-31T05:59:28.996Z,100
2022-08-31T06:00:29.065Z,100
2022-08-31T06:01:29.063Z,100
2022-08-31T06:02:29.657Z,100
2022-08-31T06:03:29.067Z,100
2022-08-31T06:04:29.040Z,100
2022-08-31T06:05:29.158Z,100
2022-08-31T06:06:28.995Z,100
2022-08-31T06:07:29.051Z,100
2022-08-31T06:08:28.982Z,100
2022-08-31T06:09:29.092Z,100
2022-08-31T06:10:29.033Z,100
2022-08-31T06:11:31.124Z,100
2022-08-31T06:12:28.996Z,100
2022-08-31T06:13:29.084Z,100
2022-08-31T06:14:29.082Z,100
2022-08-31T06:15:29.031Z,100
2022-08-31T06:16:29.109Z,100
2022-08-31T06:17:28.995Z,100
2022-08-31T06:18:28.993Z,100
2022-08-31T06:19:28.998Z,100
2022-08-31T06:20:29.006Z,100
2022-08-31T06:21:29.063Z,100
2022-08-31T06:22:28.985Z,100
2022-08-31T06:23:29.073Z,100
2022-08-31T06:24:29.003Z,100
2022-08-31T06:25:29.076Z,100
2022-08-31T06:26:29.060Z,100
2022-08-31T06:27:29.020Z,100
2022-08-31T06:28:29.151Z,100
2022-08-31T06:29:29.004Z,100
2022-08-31T06:30:29.061Z,100
2022-08-31T06:31:29.102Z,100
2022-08-31T06:32:29.005Z,100
2022-08-31T06:33:29.001Z,100
2022-08-31T06:34:29.205Z,100
2022-08-31T06:35:28.994Z,100
2022-08-31T06:36:29.003Z,100
2022-08-31T06:37:29.069Z,100
2022-08-31T06:38:29.054Z,100
2022-08-31T06:39:28.994Z,100
2022-08-31T06:40:29.107Z,100
2022-08-31T06:41:32.109Z,100
2022-08-31T06:42:29.005Z,100
2022-08-31T06:43:29.049Z,100
2022-08-31T06:44:29.053Z,100
2022-08-31T06:45:28.998Z,100
2022-08-31T06:46:29.106Z,100
2022-08-31T06:47:29.025Z,100
2022-08-31T06:48:29.030Z,100
2022-08-31T06:49:29.000Z,100
2022-08-31T06:50:29.040Z,100
2022-08-31T06:51:29.122Z,100
2022-08-31T06:52:29.056Z,100
2022-08-31T06:53:28.987Z,100
2022-08-31T06:54:30.451Z,100
2022-08-31T06:55:29.070Z,100
2022-08-31T06:56:29.003Z,100
2022-08-31T06:57:29.078Z,100
2022-08-31T06:58:28.993Z,100
2022-08-31T06:59:29.975Z,100
2022-08-31T07:00:28.997Z,100
2022-08-31T07:01:35.090Z,100
2022-08-31T07:02:29.080Z,100
2022-08-31T07:03:28.993Z,100
2022-08-31T07:04:29.080Z,100
2022-08-31T07:05:29.005Z,100
2022-08-31T07:06:28.988Z,100
2022-08-31T07:07:28.986Z,100
2022-08-31T07:08:29.008Z,100
2022-08-31T07:09:28.993Z,100
2022-08-31T07:10:28.990Z,100
2022-08-31T07:11:29.058Z,100
2022-08-31T07:12:29.002Z,100
2022-08-31T07:13:29.064Z,100
2022-08-31T07:14:29.088Z,100
2022-08-31T07:15:29.008Z,100
2022-08-31T07:16:29.088Z,100
2022-08-31T07:17:29.007Z,100
2022-08-31T07:18:36.117Z,100
2022-08-31T07:19:28.998Z,100
2022-08-31T07:20:29.120Z,100
2022-08-31T07:21:29.048Z,100
2022-08-31T07:22:29.040Z,100
2022-08-31T07:23:29.043Z,100
2022-08-31T07:24:29.027Z,100
2022-08-31T07:25:29.061Z,100
2022-08-31T07:26:31.490Z,100
2022-08-31T07:27:29.010Z,100
2022-08-31T07:28:28.983Z,100
2022-08-31T07:29:28.997Z,100
2022-08-31T07:30:29.124Z,100
2022-08-31T07:31:29.029Z,100
2022-08-31T07:32:29.064Z,100
2022-08-31T07:33:28.999Z,100
2022-08-31T07:34:29.017Z,100
2022-08-31T07:35:29.054Z,100
2022-08-31T07:36:29.000Z,100
2022-08-31T07:37:29.000Z,100
2022-08-31T07:38:29.044Z,100
2022-08-31T07:39:29.039Z,100
2022-08-31T07:40:29.104Z,100
2022-08-31T07:41:29.012Z,100
2022-08-31T07:42:29.015Z,100
2022-08-31T07:43:29.010Z,100
2022-08-31T07:44:29.099Z,100
2022-08-31T07:45:31.235Z,100
2022-08-31T07:46:29.123Z,100
2022-08-31T07:47:29.253Z,100
2022-08-31T07:48:29.021Z,100
2022-08-31T07:49:29.042Z,100
2022-08-31T07:50:29.094Z,100
2022-08-31T07:51:29.131Z,100
2022-08-31T07:52:29.309Z,100
2022-08-31T07:53:29.286Z,100
2022-08-31T07:54:34.128Z,100
2022-08-31T07:55:34.081Z,100
2022-08-31T07:56:35.052Z,100
2022-08-31T07:57:29.000Z,100
2022-08-31T07:58:34.038Z,100
2022-08-31T07:59:29.069Z,100
2022-08-31T08:00:34.040Z,100
2022-08-31T08:01:29.132Z,100
2022-08-31T08:02:29.217Z,100
2022-08-31T08:03:29.008Z,100
2022-08-31T08:04:29.007Z,100
2022-08-31T08:05:29.186Z,100
2022-08-31T08:06:32.861Z,100
2022-08-31T08:07:29.010Z,100
2022-08-31T08:08:29.072Z,100
2022-08-31T08:09:29.005Z,100
2022-08-31T08:10:29.004Z,100
2022-08-31T08:11:29.015Z,100
2022-08-31T08:12:29.009Z,100
2022-08-31T08:13:29.080Z,100
2022-08-31T08:14:30.312Z,100
2022-08-31T08:15:29.012Z,100
2022-08-31T08:16:29.096Z,100
2022-08-31T08:17:29.006Z,100
2022-08-31T08:18:29.016Z,100
2022-08-31T08:19:29.029Z,100
2022-08-31T08:20:37.256Z,100
2022-08-31T08:21:29.004Z,100
2022-08-31T08:22:50.724Z,100
2022-08-31T08:23:29.161Z,100
2022-08-31T08:24:29.011Z,100
2022-08-31T08:25:31.037Z,100
2022-08-31T08:26:29.101Z,100
2022-08-31T08:27:29.076Z,100
2022-08-31T08:28:39.234Z,98.7
2022-08-31T08:29:29.178Z,98.8
2022-08-31T08:30:29.207Z,94.8
2022-08-31T08:31:29.190Z,96.8
2022-08-31T08:32:29.012Z,97.9
2022-08-31T08:33:29.057Z,99.4
2022-08-31T08:34:32.309Z,100
2022-08-31T08:35:29.013Z,100
2022-08-31T08:36:29.048Z,100
2022-08-31T08:37:54.219Z,100
2022-08-31T08:38:29.014Z,96.6
2022-08-31T08:39:29.023Z,96.7
2022-08-31T08:40:29.165Z,95.8
2022-08-31T08:41:29.008Z,98.7
2022-08-31T08:42:29.021Z,97.7
2022-08-31T08:43:31.033Z,99
2022-08-31T08:44:29.018Z,97.6
2022-08-31T08:45:29.112Z,100
2022-08-31T08:46:35.202Z,95.6
2022-08-31T08:47:38.318Z,99.7
2022-08-31T08:48:29.022Z,98.6
2022-08-31T08:49:29.030Z,94.4
2022-08-31T08:50:29.017Z,93.4
2022-08-31T08:51:29.019Z,91.5
2022-08-31T08:52:29.079Z,87
2022-08-31T08:53:29.013Z,87.5
2022-08-31T08:54:29.085Z,86.8
2022-08-31T08:55:29.020Z,90.6
2022-08-31T08:56:33.850Z,91.7
2022-08-31T08:57:29.015Z,89.8
2022-08-31T08:58:29.027Z,89.9
2022-08-31T08:59:34.065Z,86.4
2022-08-31T09:00:34.026Z,87.4
2022-08-31T09:01:29.217Z,89.4
2022-08-31T09:02:29.046Z,86.6
2022-08-31T09:03:29.507Z,89.1
2022-08-31T09:04:29.013Z,90
2022-08-31T09:05:29.021Z,88.9
2022-08-31T09:06:40.482Z,87.8
2022-08-31T09:07:29.024Z,89.6
2022-08-31T09:08:29.085Z,90.4
2022-08-31T09:09:29.032Z,90
2022-08-31T09:10:29.017Z,88.7
2022-08-31T09:11:29.019Z,89.8
2022-08-31T09:12:29.032Z,88.7
2022-08-31T09:13:29.023Z,91.7
2022-08-31T09:14:29.044Z,93.1
2022-08-31T09:15:29.086Z,96.9
2022-08-31T09:16:29.109Z,100
2022-08-31T09:17:29.044Z,99
2022-08-31T09:18:29.034Z,96.2
2022-08-31T09:19:29.040Z,95.2
2022-08-31T09:20:29.035Z,94.8
2022-08-31T09:21:29.080Z,96.1
2022-08-31T09:22:29.080Z,97.7
2022-08-31T09:23:29.087Z,99.8
2022-08-31T09:24:29.026Z,96.6
2022-08-31T09:25:29.059Z,93.3
2022-08-31T09:26:29.029Z,90.3
2022-08-31T09:27:29.026Z,88.5
2022-08-31T09:28:29.076Z,87.8
2022-08-31T09:29:29.105Z,88.8
2022-08-31T09:30:29.057Z,90.2
2022-08-31T09:31:29.073Z,90
2022-08-31T09:32:31.096Z,89.7
2022-08-31T09:33:29.028Z,89.6
2022-08-31T09:34:29.005Z,91.4
2022-08-31T09:35:29.146Z,90.4
2022-08-31T09:36:29.037Z,86.6
2022-08-31T09:37:29.044Z,86.6
2022-08-31T09:38:29.055Z,86.3
2022-08-31T09:39:29.030Z,85.8
2022-08-31T09:40:29.121Z,85
2022-08-31T09:41:28.994Z,86
2022-08-31T09:42:29.096Z,84.8
2022-08-31T09:43:29.038Z,85.9
2022-08-31T09:44:29.054Z,85.8
2022-08-31T09:45:29.085Z,84.2
2022-08-31T09:46:29.124Z,84
2022-08-31T09:47:29.039Z,82
2022-08-31T09:48:29.041Z,85.4
2022-08-31T09:49:29.118Z,82
2022-08-31T09:50:29.029Z,81.5
2022-08-31T09:51:29.101Z,79.7
2022-08-31T09:52:29.032Z,80.4
2022-08-31T09:53:29.037Z,83.1
2022-08-31T09:54:29.045Z,82.4
2022-08-31T09:55:29.039Z,83.5
2022-08-31T09:56:29.094Z,81.5
2022-08-31T09:57:29.032Z,80.4
2022-08-31T09:58:29.149Z,78.3
2022-08-31T09:59:29.037Z,79.9
2022-08-31T10:00:29.051Z,79.9
2022-08-31T10:01:29.175Z,78.3
2022-08-31T10:02:29.144Z,77.8
2022-08-31T10:03:29.109Z,79
2022-08-31T10:04:29.097Z,78.8
2022-08-31T10:05:29.136Z,76.6
2022-08-31T10:06:29.048Z,75.7
2022-08-31T10:07:29.055Z,75.6
2022-08-31T10:08:29.048Z,77
2022-08-31T10:09:29.128Z,78
2022-08-31T10:10:31.132Z,79.5
2022-08-31T10:11:29.041Z,79.4
2022-08-31T10:12:29.036Z,80
2022-08-31T10:13:29.093Z,77.7
2022-08-31T10:14:34.054Z,75
2022-08-31T10:15:29.041Z,77.5
2022-08-31T10:16:29.168Z,74.3
2022-08-31T10:17:32.009Z,75
2022-08-31T10:18:29.046Z,74.5
2022-08-31T10:19:29.047Z,76.7
2022-08-31T10:20:30.532Z,77.8
2022-08-31T10:21:29.048Z,76.2
2022-08-31T10:22:29.049Z,72.8
2022-08-31T10:23:29.080Z,74.7
2022-08-31T10:24:29.034Z,76.2
2022-08-31T10:25:29.046Z,74
2022-08-31T10:26:29.106Z,74.9
2022-08-31T10:27:29.048Z,73.6
2022-08-31T10:28:29.245Z,74.5
2022-08-31T10:29:29.042Z,73.2
2022-08-31T10:30:29.125Z,73.2
2022-08-31T10:31:29.127Z,71.5
2022-08-31T10:32:29.048Z,70.4
2022-08-31T10:33:29.047Z,71.3
2022-08-31T10:34:29.046Z,72.3
2022-08-31T10:35:29.046Z,71.3
2022-08-31T10:36:29.195Z,71.3
2022-08-31T10:37:29.155Z,70.4
2022-08-31T10:38:29.179Z,71
2022-08-31T10:39:31.120Z,70.5
2022-08-31T10:40:29.106Z,69.5
2022-08-31T10:41:34.397Z,69.7
2022-08-31T10:42:29.050Z,72.5
2022-08-31T10:43:29.044Z,70.3
2022-08-31T10:44:29.128Z,68.9
2022-08-31T10:45:29.057Z,69.4
2022-08-31T10:46:29.173Z,70.8
2022-08-31T10:47:33.690Z,69.3
2022-08-31T10:48:29.098Z,69.6
2022-08-31T10:49:29.044Z,70.4
2022-08-31T10:50:29.058Z,69.3
2022-08-31T10:51:29.117Z,70
2022-08-31T10:52:29.070Z,69.2
2022-08-31T10:53:29.171Z,69.3
2022-08-31T10:54:29.052Z,69.1
2022-08-31T10:55:29.068Z,67.9
2022-08-31T10:56:29.047Z,67.7
2022-08-31T10:57:43.130Z,69.6
2022-08-31T10:58:29.114Z,69.7
2022-08-31T10:59:29.052Z,70.4
2022-08-31T11:00:29.144Z,69.3
2022-08-31T11:01:29.114Z,70.6
2022-08-31T11:02:34.572Z,70
2022-08-31T11:03:29.127Z,70.9
2022-08-31T11:04:34.155Z,69.8
2022-08-31T11:05:29.122Z,69.6
2022-08-31T11:06:29.058Z,68.6
2022-08-31T11:07:29.092Z,73.2
2022-08-31T11:08:29.102Z,69
2022-08-31T11:09:29.057Z,68.1
2022-08-31T11:10:29.355Z,68.7
2022-08-31T11:11:29.099Z,69.8
2022-08-31T11:12:29.120Z,71
2022-08-31T11:13:29.101Z,69.9
2022-08-31T11:14:43.134Z,68.9
2022-08-31T11:15:29.105Z,68.7
2022-08-31T11:16:30.873Z,66.5
2022-08-31T11:17:29.062Z,67.6
2022-08-31T11:18:29.099Z,66.3
2022-08-31T11:19:29.132Z,66.8
2022-08-31T11:20:29.058Z,67
2022-08-31T11:21:34.127Z,65.9
2022-08-31T11:22:29.068Z,65.7
2022-08-31T11:23:29.061Z,66.1
2022-08-31T11:24:30.810Z,66.7
2022-08-31T11:25:29.148Z,65.9
2022-08-31T11:26:29.146Z,64.5
2022-08-31T11:27:29.066Z,64.5
2022-08-31T11:28:29.067Z,62.7
2022-08-31T11:29:29.083Z,61.6
2022-08-31T11:30:29.098Z,61.1
2022-08-31T11:31:29.135Z,60.1
2022-08-31T11:32:29.262Z,58.7
2022-08-31T11:33:34.261Z,57.9
2022-08-31T11:34:29.116Z,57.7
2022-08-31T11:35:29.127Z,58.7
2022-08-31T11:36:29.054Z,59.2
2022-08-31T11:37:34.191Z,62.7
2022-08-31T11:38:29.255Z,63.1
2022-08-31T11:39:29.150Z,62.7
2022-08-31T11:40:29.217Z,63.1
2022-08-31T11:41:29.190Z,64.3
2022-08-31T11:42:29.263Z,65.5
2022-08-31T11:43:29.313Z,63.9
2022-08-31T11:44:29.359Z,65.2
2022-08-31T11:45:29.358Z,64.5
2022-08-31T11:46:31.393Z,63.5
2022-08-31T11:47:29.427Z,63
2022-08-31T11:48:29.469Z,62.8
2022-08-31T11:49:29.075Z,64.1
2022-08-31T11:50:43.374Z,63.8
2022-08-31T11:51:29.081Z,63.2
2022-08-31T11:52:29.045Z,62.8
2022-08-31T11:53:29.164Z,61.5
2022-08-31T11:54:29.067Z,61.4
2022-08-31T11:55:29.096Z,60.8
2022-08-31T11:56:29.150Z,59.5
2022-08-31T11:57:32.184Z,58
2022-08-31T11:58:29.087Z,55.4
2022-08-31T11:59:29.115Z,55.8
2022-08-31T12:00:29.142Z,57.5
2022-08-31T12:01:29.091Z,56.6
2022-08-31T12:02:29.300Z,55.3
2022-08-31T12:03:29.084Z,53.4
2022-08-31T12:04:29.139Z,51.8
2022-08-31T12:05:29.127Z,53.3
2022-08-31T12:06:29.154Z,51.1
2022-08-31T12:07:29.157Z,50.7
2022-08-31T12:08:29.087Z,49.2
2022-08-31T12:09:34.265Z,48.8
2022-08-31T12:10:29.081Z,48.3
2022-08-31T12:11:29.069Z,48.1
2022-08-31T12:12:29.081Z,47.6
2022-08-31T12:13:29.280Z,47.9
2022-08-31T12:14:43.715Z,50.6
2022-08-31T12:15:29.201Z,51
2022-08-31T12:16:29.242Z,50
2022-08-31T12:17:29.081Z,50.6
2022-08-31T12:18:29.094Z,52.3
2022-08-31T12:19:29.069Z,51.8
2022-08-31T12:20:29.143Z,53.9
2022-08-31T12:21:30.036Z,56
2022-08-31T12:22:29.131Z,57.1
2022-08-31T12:23:30.829Z,55.3
2022-08-31T12:24:29.745Z,54.8
2022-08-31T12:25:29.086Z,54.5
2022-08-31T12:26:40.656Z,56.2
2022-08-31T12:27:29.165Z,55.6
2022-08-31T12:28:29.534Z,55.7
2022-08-31T12:29:29.102Z,53
2022-08-31T12:30:29.072Z,50.6
2022-08-31T12:31:29.128Z,48
2022-08-31T12:32:29.085Z,48.7
2022-08-31T12:33:29.862Z,45.6
2022-08-31T12:34:29.145Z,44
2022-08-31T12:35:29.086Z,41.7
2022-08-31T12:36:29.106Z,41.1
2022-08-31T12:37:34.208Z,40.5
2022-08-31T12:38:35.454Z,41
2022-08-31T12:39:29.094Z,39.7
2022-08-31T12:40:29.217Z,39.4
2022-08-31T12:41:29.130Z,38.5
2022-08-31T12:42:29.086Z,38.1
2022-08-31T12:43:29.572Z,35.8
2022-08-31T12:44:29.204Z,37.1
2022-08-31T12:45:29.087Z,37.6
2022-08-31T12:46:29.307Z,35.7
2022-08-31T12:47:29.136Z,36.5
2022-08-31T12:48:29.094Z,37.6
2022-08-31T12:49:29.090Z,38.4
2022-08-31T12:50:29.118Z,38.7
2022-08-31T12:51:29.085Z,38.7
2022-08-31T12:52:29.143Z,40.4
2022-08-31T12:53:31.152Z,40.6
2022-08-31T12:54:29.164Z,41
2022-08-31T12:55:29.105Z,42.1
2022-08-31T12:56:29.109Z,43
2022-08-31T12:57:29.486Z,44.5
2022-08-31T12:58:29.096Z,45.1
2022-08-31T12:59:45.770Z,45.2
2022-08-31T13:00:29.226Z,44.8
2022-08-31T13:01:29.251Z,42.3
2022-08-31T13:02:29.198Z,40.4
2022-08-31T13:03:29.105Z,40.1
2022-08-31T13:04:29.104Z,38.1
2022-08-31T13:05:29.094Z,36.9
2022-08-31T13:06:29.117Z,36.2
2022-08-31T13:07:29.100Z,34.9
2022-08-31T13:08:29.158Z,35.4
2022-08-31T13:09:29.174Z,34.5
2022-08-31T13:10:29.129Z,33.6
2022-08-31T13:11:34.976Z,32.9
2022-08-31T13:12:29.102Z,32.5
2022-08-31T13:13:29.104Z,32.9
2022-08-31T13:14:29.258Z,32.1
2022-08-31T13:15:29.159Z,32.2
2022-08-31T13:16:29.145Z,33.5
2022-08-31T13:17:29.091Z,32.7
2022-08-31T13:18:29.110Z,31.6
2022-08-31T13:19:29.096Z,31.1
2022-08-31T13:20:29.121Z,30.5
2022-08-31T13:21:29.146Z,30.8
2022-08-31T13:22:29.181Z,31.4
2022-08-31T13:23:29.100Z,31.6
2022-08-31T13:24:29.758Z,30.6
2022-08-31T13:25:29.100Z,30
2022-08-31T13:26:29.156Z,29.7
2022-08-31T13:27:29.095Z,30.4
2022-08-31T13:28:29.182Z,31.5
2022-08-31T13:29:29.316Z,31.6
2022-08-31T13:30:29.119Z,31.3
2022-08-31T13:31:29.183Z,31.1
2022-08-31T13:32:29.102Z,31.3
2022-08-31T13:33:29.095Z,31
2022-08-31T13:34:29.103Z,30.4
2022-08-31T13:35:29.176Z,29.5
2022-08-31T13:36:29.118Z,29.1
2022-08-31T13:37:29.108Z,28.4